AGGH/HIR METAR and TAF weather

Enter ICAO airport designator
Station Type Date Time Source
AGGH METAR 2018/01/19 23:00 UTC NOAA

AGGH 192300Z 09008KT 9999 HZ FEW018 SCT300 31/25 Q1008


Station Type Date Time Source
AGGH Decoded METAR 2018/01/19 23:00 UTC NOAA

Honiara / Henderson, Solomon Islands (AGGH) 09-25S 160-03E 9M
Jan 19, 2018 - 06:00 PM EST / 2018.01.19 2300 UTC
Wind: from the E (090 degrees) at 9 MPH (8 KT):0
Visibility: greater than 7 mile(s):0
Sky conditions: partly cloudy
Weather: haze
Temperature: 87 F (31 C)
Heat index: 97.5 F (36.4 C):1
Dew Point: 77 F (25 C)
Relative Humidity: 70%
Pressure (altimeter): 29.77 in. Hg (1008 hPa)
ob: AGGH 192300Z 09008KT 9999 HZ FEW018 SCT300 31/25 Q1008
cycle: 23

Station Type Date Time Source
AGGH TAF 2018/01/19 18:19 UTC NOAA

TAF AGGH 191710Z 1918/2018 VRB03KT 9999 -SHDZ FEW017 SCT028
FM192300 09015KT 9999 SCT019 SCT030 PROB40 INTER 2001/2007 5000 TSSH SCT018 FEW019CB T 24 27 31 31 Q 1006 1008 1008 1006


Example: see airport list